createdAt,value
2023-09-30T00:00:22.090Z,94383.19
2023-09-30T00:01:16.061Z,94382.71
2023-09-30T00:01:50.953Z,94385.85
2023-09-30T00:02:24.928Z,94382.30
2023-09-30T00:02:59.267Z,94387.23
2023-09-30T00:03:33.244Z,94387.62
2023-09-30T00:04:08.502Z,94387.81
2023-09-30T00:04:42.180Z,94384.35
2023-09-30T00:05:16.383Z,94386.52
2023-09-30T00:05:49.716Z,94382.70
2023-09-30T00:06:23.249Z,94384.35
2023-09-30T00:06:56.740Z,94383.80
2023-09-30T00:07:30.239Z,94382.50
2023-09-30T00:08:04.544Z,94379.38
2023-09-30T00:08:40.546Z,94379.52
2023-09-30T00:09:14.864Z,94380.05
2023-09-30T00:09:48.521Z,94373.61
2023-09-30T00:10:22.002Z,94376.38
2023-09-30T00:10:56.021Z,94380.04
2023-09-30T00:11:29.306Z,94379.32
2023-09-30T00:12:03.233Z,94377.41
2023-09-30T00:12:38.837Z,94376.66
2023-09-30T00:13:15.991Z,94379.46
2023-09-30T00:13:52.680Z,94380.36
2023-09-30T00:14:27.404Z,94382.91
2023-09-30T00:15:00.873Z,94379.52
2023-09-30T00:15:35.132Z,94384.98
2023-09-30T00:16:08.514Z,94382.91
2023-09-30T00:16:42.033Z,94377.65
2023-09-30T00:17:16.444Z,94376.16
2023-09-30T00:17:50.010Z,94376.36
2023-09-30T00:18:23.495Z,94375.91
2023-09-30T00:18:57.194Z,94374.04
2023-09-30T00:19:30.930Z,94374.14
2023-09-30T00:20:05.457Z,94372.60
2023-09-30T00:20:38.853Z,94374.33
2023-09-30T00:21:12.954Z,94376.65
2023-09-30T00:21:46.520Z,94381.01
2023-09-30T00:22:19.960Z,94380.73
2023-09-30T00:22:53.262Z,94376.92
2023-09-30T00:23:26.677Z,94378.00
2023-09-30T00:24:00.227Z,94369.08
2023-09-30T00:24:33.832Z,94378.02
2023-09-30T00:25:07.887Z,94379.23
2023-09-30T00:25:41.260Z,94381.52
2023-09-30T00:26:15.591Z,94383.17
2023-09-30T00:26:52.018Z,94379.89
2023-09-30T00:27:25.566Z,94379.98
2023-09-30T00:27:58.925Z,94381.33
2023-09-30T00:28:32.217Z,94384.08
2023-09-30T00:29:06.425Z,94382.75
2023-09-30T00:29:40.021Z,94383.44
2023-09-30T00:30:13.764Z,94383.44
2023-09-30T00:30:49.079Z,94383.60
2023-09-30T00:31:22.888Z,94386.19
2023-09-30T00:31:56.269Z,94387.00
2023-09-30T00:32:29.930Z,94388.92
2023-09-30T00:33:04.429Z,94392.70
2023-09-30T00:33:38.438Z,94393.19
2023-09-30T00:34:11.891Z,94395.24
2023-09-30T00:34:46.110Z,94396.95
2023-09-30T00:35:19.460Z,94399.66
2023-09-30T00:35:52.858Z,94398.65
2023-09-30T00:36:26.507Z,94400.88
2023-09-30T00:36:59.790Z,94402.63
2023-09-30T00:37:33.887Z,94404.12
2023-09-30T00:38:07.277Z,94406.83
2023-09-30T00:38:41.440Z,94403.91
2023-09-30T00:39:14.900Z,94408.00
2023-09-30T00:39:48.387Z,94410.19
2023-09-30T00:40:21.718Z,94408.20
2023-09-30T00:40:55.188Z,94403.65
2023-09-30T00:41:28.652Z,94410.17
2023-09-30T00:42:02.040Z,94409.55
2023-09-30T00:42:35.590Z,94410.92
2023-09-30T00:43:19.794Z,94412.67
2023-09-30T00:43:53.212Z,94410.60
2023-09-30T00:44:28.155Z,94410.20
2023-09-30T00:45:06.369Z,94409.23
2023-09-30T00:45:40.179Z,94410.05
2023-09-30T00:46:49.577Z,94409.66
2023-09-30T00:47:24.307Z,94411.95
2023-09-30T00:47:58.050Z,94413.39
2023-09-30T00:48:31.876Z,94413.34
2023-09-30T00:49:05.547Z,94415.64
2023-09-30T00:49:40.009Z,94414.11
2023-09-30T00:50:14.812Z,94415.48
2023-09-30T00:50:48.289Z,94417.79
2023-09-30T00:51:22.658Z,94420.70
2023-09-30T00:51:57.059Z,94420.00
2023-09-30T00:52:34.552Z,94423.11
2023-09-30T00:53:08.966Z,94425.35
2023-09-30T00:53:45.709Z,94426.80
2023-09-30T00:54:20.501Z,94427.80
2023-09-30T00:54:56.392Z,94427.90
2023-09-30T00:55:29.980Z,94426.90
2023-09-30T00:56:03.927Z,94425.29
2023-09-30T00:56:44.780Z,94428.29
2023-09-30T00:57:21.023Z,94427.80
2023-09-30T00:57:54.930Z,94425.75
2023-09-30T00:58:30.325Z,94424.86
2023-09-30T00:59:05.397Z,94421.35
2023-09-30T00:59:40.662Z,94421.34
2023-09-30T01:00:14.794Z,94419.70
2023-09-30T01:00:48.676Z,94423.05
2023-09-30T01:01:23.591Z,94423.85
2023-09-30T01:02:00.380Z,94421.88
2023-09-30T01:02:36.292Z,94424.54
2023-09-30T01:03:13.419Z,94427.36
2023-09-30T01:03:48.258Z,94430.23
2023-09-30T01:04:22.641Z,94430.77
2023-09-30T01:04:57.295Z,94433.00
2023-09-30T01:05:31.839Z,94429.63
2023-09-30T01:06:05.468Z,94426.27
2023-09-30T01:06:39.465Z,94428.98
2023-09-30T01:07:12.910Z,94425.86
2023-09-30T01:07:46.397Z,94423.44
2023-09-30T01:08:21.369Z,94422.70
2023-09-30T01:08:55.241Z,94423.48
2023-09-30T01:09:29.265Z,94417.91
2023-09-30T01:10:03.896Z,94416.69
2023-09-30T01:10:37.360Z,94423.02
2023-09-30T01:11:10.861Z,94422.75
2023-09-30T01:11:45.765Z,94423.29
2023-09-30T01:12:19.367Z,94422.91
2023-09-30T01:12:52.797Z,94419.40
2023-09-30T01:13:34.341Z,94421.74
2023-09-30T01:14:41.921Z,94418.34
2023-09-30T01:15:15.738Z,94421.40
2023-09-30T01:15:49.148Z,94423.10
2023-09-30T01:16:23.127Z,94422.16
2023-09-30T01:16:57.311Z,94425.25
2023-09-30T01:17:30.926Z,94425.77
2023-09-30T01:18:05.426Z,94425.87
2023-09-30T01:18:41.521Z,94420.55
2023-09-30T01:19:15.125Z,94425.33
2023-09-30T01:19:48.583Z,94421.27
2023-09-30T01:20:23.565Z,94419.45
2023-09-30T01:20:57.980Z,94421.94
2023-09-30T01:21:35.758Z,94420.50
2023-09-30T01:22:11.290Z,94417.85
2023-09-30T01:22:46.800Z,94417.83
2023-09-30T01:23:20.690Z,94415.58
2023-09-30T01:23:54.061Z,94419.13
2023-09-30T01:24:28.605Z,94419.39
2023-09-30T01:25:01.988Z,94419.34
2023-09-30T01:25:36.401Z,94423.34
2023-09-30T01:26:14.076Z,94420.21
2023-09-30T01:26:47.422Z,94416.65
2023-09-30T01:27:21.053Z,94419.57
2023-09-30T01:27:55.309Z,94419.09
2023-09-30T01:28:28.626Z,94416.06
2023-09-30T01:29:01.912Z,94420.48
2023-09-30T01:29:36.290Z,94415.02
2023-09-30T01:30:12.471Z,94411.08
2023-09-30T01:30:46.638Z,94414.52
2023-09-30T01:31:20.044Z,94413.73
2023-09-30T01:31:53.646Z,94416.48
2023-09-30T01:32:27.348Z,94415.83
2023-09-30T01:33:01.899Z,94413.23
2023-09-30T01:33:35.661Z,94415.45
2023-09-30T01:34:12.100Z,94415.15
2023-09-30T01:34:45.596Z,94413.15
2023-09-30T01:35:19.008Z,94415.55
2023-09-30T01:35:52.642Z,94415.56
2023-09-30T01:36:26.131Z,94417.42
2023-09-30T01:36:59.592Z,94413.98
2023-09-30T01:37:33.446Z,94413.98
2023-09-30T01:38:06.931Z,94414.54
2023-09-30T01:38:40.412Z,94414.92
2023-09-30T01:39:15.827Z,94410.89
2023-09-30T01:39:51.677Z,94413.23
2023-09-30T01:40:25.056Z,94410.94
2023-09-30T01:41:00.892Z,94411.54
2023-09-30T01:41:34.977Z,94410.05
2023-09-30T01:42:08.388Z,94414.52
2023-09-30T01:42:42.063Z,94414.08
2023-09-30T01:43:16.593Z,94411.96
2023-09-30T01:43:50.384Z,94411.19
2023-09-30T01:44:23.780Z,94411.65
2023-09-30T01:44:58.308Z,94411.94
2023-09-30T01:45:31.776Z,94413.21
2023-09-30T01:46:06.801Z,94412.63
2023-09-30T01:46:40.825Z,94410.81
2023-09-30T01:47:14.239Z,94411.45
2023-09-30T01:47:47.813Z,94409.11
2023-09-30T01:48:21.381Z,94408.94
2023-09-30T01:48:54.883Z,94412.50
2023-09-30T01:50:44.410Z,94415.19
2023-09-30T01:51:18.054Z,94412.98
2023-09-30T01:51:51.701Z,94411.55
2023-09-30T01:52:25.611Z,94412.83
2023-09-30T01:52:59.068Z,94413.51
2023-09-30T01:53:32.592Z,94402.88
2023-09-30T01:54:06.258Z,94416.34
2023-09-30T01:54:39.929Z,94421.42
2023-09-30T01:55:13.662Z,94416.54
2023-09-30T01:55:47.170Z,94414.35
2023-09-30T01:56:21.468Z,94419.71
2023-09-30T01:56:55.276Z,94420.73
2023-09-30T01:57:28.700Z,94416.84
2023-09-30T01:58:02.208Z,94418.16
2023-09-30T01:58:35.811Z,94420.34
2023-09-30T01:59:09.211Z,94420.08
2023-09-30T01:59:42.673Z,94418.70
2023-09-30T02:00:16.138Z,94423.11
2023-09-30T02:00:49.632Z,94419.23
2023-09-30T02:01:23.609Z,94417.16
2023-09-30T02:01:58.221Z,94419.66
2023-09-30T02:02:32.457Z,94421.94
2023-09-30T02:03:06.225Z,94424.12
2023-09-30T02:03:39.912Z,94422.58
2023-09-30T02:04:16.851Z,94422.81
2023-09-30T02:04:50.347Z,94423.77
2023-09-30T02:05:24.718Z,94426.15
2023-09-30T02:06:01.029Z,94424.02
2023-09-30T02:06:35.129Z,94426.42
2023-09-30T02:07:08.744Z,94421.23
2023-09-30T02:07:42.329Z,94427.88
2023-09-30T02:08:16.975Z,94428.95
2023-09-30T02:08:50.728Z,94425.02
2023-09-30T02:09:24.403Z,94428.30
2023-09-30T02:09:59.129Z,94424.91
2023-09-30T02:10:34.698Z,94424.85
2023-09-30T02:11:08.310Z,94428.73
2023-09-30T02:11:42.802Z,94430.48
2023-09-30T02:12:16.465Z,94428.79
2023-09-30T02:12:50.766Z,94434.05
2023-09-30T02:13:24.368Z,94435.49
2023-09-30T02:13:58.207Z,94437.50
2023-09-30T02:14:33.578Z,94435.91
2023-09-30T02:15:08.633Z,94437.02
2023-09-30T02:15:45.266Z,94437.34
2023-09-30T02:16:18.823Z,94435.98
2023-09-30T02:16:52.315Z,94438.63
2023-09-30T02:17:26.066Z,94437.99
2023-09-30T02:18:01.796Z,94439.90
2023-09-30T02:18:35.653Z,94438.48
2023-09-30T02:19:12.445Z,94442.33
2023-09-30T02:19:46.424Z,94439.09
2023-09-30T02:20:28.257Z,94440.91
2023-09-30T02:21:01.806Z,94441.89
2023-09-30T02:21:37.138Z,94440.44
2023-09-30T02:22:10.568Z,94441.37
2023-09-30T02:22:45.246Z,94446.02
2023-09-30T02:23:20.319Z,94444.31
2023-09-30T02:23:56.788Z,94446.51
2023-09-30T02:24:30.620Z,94448.44
2023-09-30T02:25:08.672Z,94451.20
2023-09-30T02:25:43.341Z,94452.79
2023-09-30T02:26:17.246Z,94448.92
2023-09-30T02:26:50.712Z,94452.27
2023-09-30T02:27:24.172Z,94453.75
2023-09-30T02:27:58.550Z,94460.65
2023-09-30T02:28:33.763Z,94458.64
2023-09-30T02:29:09.034Z,94460.70
2023-09-30T02:29:42.712Z,94458.05
2023-09-30T02:30:17.615Z,94464.95
2023-09-30T02:30:51.471Z,94461.88
2023-09-30T02:31:25.400Z,94467.98
2023-09-30T02:31:59.694Z,94465.43
2023-09-30T02:32:34.955Z,94466.35
2023-09-30T02:33:08.686Z,94472.15
2023-09-30T02:33:42.607Z,94475.05
2023-09-30T02:34:16.418Z,94475.86
2023-09-30T02:34:49.935Z,94478.67
2023-09-30T02:35:23.579Z,94480.17
2023-09-30T02:35:57.213Z,94480.13
2023-09-30T02:36:30.932Z,94483.62
2023-09-30T02:37:04.623Z,94482.70
2023-09-30T02:37:38.621Z,94481.44
2023-09-30T02:38:12.544Z,94484.11
2023-09-30T02:38:47.786Z,94482.14
2023-09-30T02:39:21.358Z,94480.66
2023-09-30T02:39:55.008Z,94479.16
2023-09-30T02:40:28.796Z,94480.23
2023-09-30T02:41:04.264Z,94476.03
2023-09-30T02:41:38.923Z,94484.54
2023-09-30T02:42:12.516Z,94481.23
2023-09-30T02:42:46.005Z,94478.85
2023-09-30T02:43:19.390Z,94478.47
2023-09-30T02:43:52.757Z,94476.84
2023-09-30T02:44:26.193Z,94478.64
2023-09-30T02:45:02.853Z,94478.39
2023-09-30T02:45:39.536Z,94482.55
2023-09-30T02:46:13.940Z,94481.54
2023-09-30T02:46:47.468Z,94478.94
2023-09-30T02:47:21.608Z,94483.14
2023-09-30T02:47:55.186Z,94481.86
2023-09-30T02:48:29.306Z,94481.17
2023-09-30T02:49:03.806Z,94484.09
2023-09-30T02:49:38.401Z,94485.26
2023-09-30T02:50:17.829Z,94488.07
2023-09-30T02:50:51.200Z,94492.44
2023-09-30T02:51:24.943Z,94490.89
2023-09-30T02:51:58.362Z,94493.71
2023-09-30T02:52:32.422Z,94491.86
2023-09-30T02:53:05.876Z,94489.52
2023-09-30T02:53:40.007Z,94494.07
2023-09-30T02:54:16.835Z,94492.06
2023-09-30T02:54:50.574Z,94493.45
2023-09-30T02:55:24.059Z,94492.17
2023-09-30T02:56:01.315Z,94490.63
2023-09-30T02:56:35.264Z,94474.67
2023-09-30T02:57:10.920Z,94487.41
2023-09-30T02:57:45.482Z,94489.73
2023-09-30T02:58:19.651Z,94490.68
2023-09-30T02:58:54.250Z,94487.41
2023-09-30T02:59:28.829Z,94490.00
2023-09-30T03:00:13.976Z,94487.98
2023-09-30T03:00:50.937Z,94487.19
2023-09-30T03:01:25.116Z,94491.65
2023-09-30T03:01:58.909Z,94485.71
2023-09-30T03:02:32.533Z,94486.72
2023-09-30T03:03:06.117Z,94482.46
2023-09-30T03:03:41.227Z,94477.59
2023-09-30T03:04:14.751Z,94487.02
2023-09-30T03:04:49.154Z,94488.30
2023-09-30T03:05:24.778Z,94485.80
2023-09-30T03:05:58.832Z,94489.37
2023-09-30T03:06:32.825Z,94488.98
2023-09-30T03:07:06.728Z,94487.98
2023-09-30T03:07:40.216Z,94487.56
2023-09-30T03:08:13.733Z,94486.13
2023-09-30T03:08:48.201Z,94487.57
2023-09-30T03:09:22.184Z,94493.77
2023-09-30T03:09:55.638Z,94494.72
2023-09-30T03:10:29.117Z,94493.48
2023-09-30T03:11:03.466Z,94496.00
2023-09-30T03:11:37.042Z,94493.55
2023-09-30T03:12:10.706Z,94491.48
2023-09-30T03:12:44.228Z,94493.86
2023-09-30T03:13:19.870Z,94493.66
2023-09-30T03:13:53.826Z,94497.42
2023-09-30T03:14:27.329Z,94481.09
2023-09-30T03:15:00.742Z,94491.95
2023-09-30T03:15:34.886Z,94492.59
2023-09-30T03:16:08.297Z,94498.59
2023-09-30T03:16:42.840Z,94493.13
2023-09-30T03:17:16.310Z,94490.80
2023-09-30T03:17:53.437Z,94488.30
2023-09-30T03:18:28.056Z,94492.75
2023-09-30T03:19:01.530Z,94482.20
2023-09-30T03:19:35.109Z,94488.92
2023-09-30T03:20:13.387Z,94488.24
2023-09-30T03:20:46.963Z,94491.64
2023-09-30T03:21:21.340Z,94494.13
2023-09-30T03:21:54.727Z,94495.34
2023-09-30T03:22:28.499Z,94494.51
2023-09-30T03:23:03.452Z,94490.42
2023-09-30T03:23:36.959Z,94490.62
2023-09-30T03:24:10.873Z,94491.16
2023-09-30T03:24:44.419Z,94498.48
2023-09-30T03:25:20.001Z,94493.27
2023-09-30T03:25:53.337Z,94495.02
2023-09-30T03:26:26.713Z,94495.56
2023-09-30T03:27:00.043Z,94495.40
2023-09-30T03:27:34.986Z,94499.86
2023-09-30T03:28:08.985Z,94499.17
2023-09-30T03:28:42.315Z,94504.26
2023-09-30T03:29:15.666Z,94500.97
2023-09-30T03:29:49.007Z,94493.81
2023-09-30T03:30:22.593Z,94496.57
2023-09-30T03:30:58.007Z,94500.11
2023-09-30T03:31:31.677Z,94499.81
2023-09-30T03:32:05.558Z,94494.70
2023-09-30T03:32:39.829Z,94498.56
2023-09-30T03:33:13.632Z,94501.28
2023-09-30T03:33:48.101Z,94501.23
2023-09-30T03:34:21.825Z,94500.69
2023-09-30T03:34:55.219Z,94505.36
2023-09-30T03:35:28.555Z,94504.82
2023-09-30T03:36:02.042Z,94509.34
2023-09-30T03:36:37.087Z,94506.94
2023-09-30T03:37:11.347Z,94506.77
2023-09-30T03:37:46.141Z,94506.92
2023-09-30T03:38:21.544Z,94515.27
2023-09-30T03:38:56.010Z,94504.98
2023-09-30T03:39:29.228Z,94509.27
2023-09-30T03:40:13.213Z,94511.86
2023-09-30T03:40:50.332Z,94502.85
2023-09-30T03:41:24.052Z,94506.56
2023-09-30T03:42:00.775Z,94509.61
2023-09-30T03:42:34.084Z,94513.16
2023-09-30T03:43:07.246Z,94517.83
2023-09-30T03:43:42.734Z,94510.41
2023-09-30T03:44:15.969Z,94513.73
2023-09-30T03:44:52.796Z,94509.80
2023-09-30T03:45:26.194Z,94513.70
2023-09-30T03:45:59.540Z,94517.67
2023-09-30T03:46:33.021Z,94514.02
2023-09-30T03:47:06.332Z,94518.64
2023-09-30T03:47:41.135Z,94514.34
2023-09-30T03:48:14.525Z,94510.99
2023-09-30T03:48:48.559Z,94508.14
2023-09-30T03:49:22.414Z,94510.41
2023-09-30T03:49:55.858Z,94503.48
2023-09-30T03:50:31.279Z,94506.48
2023-09-30T03:51:17.225Z,94508.20
2023-09-30T03:51:52.192Z,94500.65
2023-09-30T03:52:27.042Z,94507.27
2023-09-30T03:53:03.968Z,94504.27
2023-09-30T03:53:37.291Z,94504.17
2023-09-30T03:54:10.594Z,94506.89
2023-09-30T03:54:43.944Z,94502.59
2023-09-30T03:55:19.175Z,94509.73
2023-09-30T03:55:56.109Z,94510.25
2023-09-30T03:56:29.401Z,94511.69
2023-09-30T03:57:02.785Z,94506.58
2023-09-30T03:57:36.257Z,94508.17
2023-09-30T03:58:09.426Z,94505.52
2023-09-30T03:58:43.413Z,94507.74
2023-09-30T03:59:17.366Z,94502.70
2023-09-30T03:59:50.542Z,94502.69
2023-09-30T04:00:25.765Z,94507.73
2023-09-30T04:00:59.390Z,94506.81
2023-09-30T04:01:32.853Z,94506.52
2023-09-30T04:02:07.740Z,94506.51
2023-09-30T04:02:44.460Z,94507.83
2023-09-30T04:03:18.145Z,94506.16
2023-09-30T04:03:51.850Z,94512.05
2023-09-30T04:04:25.904Z,94513.47
2023-09-30T04:05:00.447Z,94511.04
2023-09-30T04:05:37.949Z,94512.25
2023-09-30T04:06:11.384Z,94504.64
2023-09-30T04:06:44.748Z,94514.80
2023-09-30T04:07:18.231Z,94515.77
2023-09-30T04:07:52.345Z,94519.36
2023-09-30T04:08:25.629Z,94517.38
2023-09-30T04:09:00.399Z,94513.60
2023-09-30T04:09:34.563Z,94514.48
2023-09-30T04:10:07.906Z,94519.73
2023-09-30T04:10:41.125Z,94518.73
2023-09-30T04:11:19.362Z,94510.62
2023-09-30T04:11:52.693Z,94523.67
2023-09-30T04:12:27.209Z,94527.55
2023-09-30T04:13:00.475Z,94529.66
2023-09-30T04:13:34.524Z,94515.07
2023-09-30T04:14:09.343Z,94527.17
2023-09-30T04:14:42.800Z,94525.05
2023-09-30T04:15:16.826Z,94529.69
2023-09-30T04:15:50.910Z,94533.30
2023-09-30T04:16:24.433Z,94529.14
2023-09-30T04:16:57.873Z,94528.10
2023-09-30T04:17:32.303Z,94533.38
2023-09-30T04:18:09.024Z,94535.52
2023-09-30T04:18:42.731Z,94530.98
2023-09-30T04:19:16.067Z,94533.61
2023-09-30T04:19:52.262Z,94534.55
2023-09-30T04:20:28.493Z,94532.06
2023-09-30T04:21:03.585Z,94536.93
2023-09-30T04:21:40.341Z,94535.23
2023-09-30T04:22:14.463Z,94535.17
2023-09-30T04:22:50.159Z,94539.34
2023-09-30T04:23:24.042Z,94533.21
2023-09-30T04:23:58.297Z,94536.68
2023-09-30T04:24:32.019Z,94541.72
2023-09-30T04:25:09.905Z,94539.97
2023-09-30T04:25:44.718Z,94542.66
2023-09-30T04:26:18.064Z,94542.55
2023-09-30T04:26:53.873Z,94545.95
2023-09-30T04:27:28.416Z,94544.67
2023-09-30T04:28:03.987Z,94543.88
2023-09-30T04:28:37.306Z,94542.34
2023-09-30T04:29:12.072Z,94546.83
2023-09-30T04:29:45.624Z,94544.24
2023-09-30T04:30:19.574Z,94550.33
2023-09-30T04:30:53.128Z,94549.14
2023-09-30T04:31:26.648Z,94550.16
2023-09-30T04:32:00.129Z,94547.02
2023-09-30T04:32:33.517Z,94543.79
2023-09-30T04:33:07.223Z,94544.69
2023-09-30T04:33:41.129Z,94543.63
2023-09-30T04:34:15.078Z,94546.87
2023-09-30T04:34:48.439Z,94550.20
2023-09-30T04:35:21.597Z,94547.54
2023-09-30T04:35:54.813Z,94551.13
2023-09-30T04:36:28.132Z,94546.73
2023-09-30T04:37:01.285Z,94547.71
2023-09-30T04:37:35.370Z,94547.09
2023-09-30T04:38:09.052Z,94544.91
2023-09-30T04:38:42.503Z,94549.05
2023-09-30T04:39:17.236Z,94550.10
2023-09-30T04:39:50.532Z,94542.80
2023-09-30T04:40:23.816Z,94547.24
2023-09-30T04:40:57.845Z,94555.60
2023-09-30T04:41:31.249Z,94553.73
2023-09-30T04:42:05.668Z,94553.11
2023-09-30T04:42:38.915Z,94551.23
2023-09-30T04:43:12.226Z,94545.38
2023-09-30T04:43:45.501Z,94547.17
2023-09-30T04:44:18.809Z,94547.28
2023-09-30T04:44:52.611Z,94544.35
2023-09-30T04:45:27.552Z,94553.46
2023-09-30T04:46:00.906Z,94552.45
2023-09-30T04:46:35.323Z,94552.55
2023-09-30T04:47:08.613Z,94549.55
2023-09-30T04:47:42.048Z,94553.89
2023-09-30T04:48:15.410Z,94545.95
2023-09-30T04:48:50.015Z,94545.61
2023-09-30T04:49:24.900Z,94550.75
2023-09-30T04:49:59.549Z,94548.67
2023-09-30T04:50:32.958Z,94556.88
2023-09-30T04:51:10.312Z,94559.36
2023-09-30T04:51:44.162Z,94563.66
2023-09-30T04:52:17.591Z,94560.61
2023-09-30T04:52:52.777Z,94554.65
2023-09-30T04:53:26.241Z,94545.25
2023-09-30T04:54:00.949Z,94554.65
2023-09-30T04:54:36.644Z,94562.65
2023-09-30T04:55:10.312Z,94567.85
2023-09-30T04:55:43.557Z,94560.75
2023-09-30T04:56:16.667Z,94553.91
2023-09-30T04:56:49.899Z,94555.40
2023-09-30T04:57:23.409Z,94557.94
2023-09-30T04:57:56.614Z,94557.37
2023-09-30T04:58:31.037Z,94566.25
2023-09-30T04:59:05.563Z,94564.05
2023-09-30T04:59:38.779Z,94566.40
2023-09-30T05:00:26.909Z,94567.05
2023-09-30T05:01:00.782Z,94571.92
2023-09-30T05:01:34.224Z,94570.24
2023-09-30T05:02:08.276Z,94567.61
2023-09-30T05:02:41.638Z,94570.46
2023-09-30T05:03:15.093Z,94567.64
2023-09-30T05:03:50.929Z,94571.15
2023-09-30T05:04:25.651Z,94573.65
2023-09-30T05:04:58.850Z,94575.77
2023-09-30T05:05:35.144Z,94575.55
2023-09-30T05:06:09.250Z,94576.19
2023-09-30T05:06:42.845Z,94573.65
2023-09-30T05:07:16.096Z,94577.20
2023-09-30T05:07:49.681Z,94576.67
2023-09-30T05:08:24.426Z,94575.02
2023-09-30T05:08:57.828Z,94571.67
2023-09-30T05:09:31.179Z,94571.54
2023-09-30T05:10:11.708Z,94573.28
2023-09-30T05:10:45.001Z,94575.31
2023-09-30T05:11:18.281Z,94574.29
2023-09-30T05:11:51.654Z,94573.80
2023-09-30T05:12:25.077Z,94572.87
2023-09-30T05:12:58.794Z,94573.19
2023-09-30T05:13:32.166Z,94571.30
2023-09-30T05:14:06.723Z,94573.85
2023-09-30T05:14:40.263Z,94577.02
2023-09-30T05:15:14.842Z,94575.13
2023-09-30T05:15:48.154Z,94579.35
2023-09-30T05:16:21.504Z,94575.42
2023-09-30T05:16:54.973Z,94580.52
2023-09-30T05:17:30.034Z,94587.13
2023-09-30T05:18:03.797Z,94584.71
2023-09-30T05:18:37.175Z,94590.02
2023-09-30T05:19:10.541Z,94590.88
2023-09-30T05:19:43.697Z,94589.13
2023-09-30T05:20:19.225Z,94593.52
2023-09-30T05:20:52.728Z,94595.45
2023-09-30T05:21:26.178Z,94588.98
2023-09-30T05:21:59.781Z,94590.93
2023-09-30T05:22:33.013Z,94596.86
2023-09-30T05:23:08.467Z,94593.05
2023-09-30T05:23:41.804Z,94590.77
2023-09-30T05:24:15.186Z,94591.25
2023-09-30T05:24:49.163Z,94591.52
2023-09-30T05:25:27.156Z,94589.24
2023-09-30T05:26:00.575Z,94591.57
2023-09-30T05:26:34.348Z,94591.14
2023-09-30T05:27:07.940Z,94585.41
2023-09-30T05:27:41.207Z,94589.24
2023-09-30T05:28:15.056Z,94587.75
2023-09-30T05:28:48.342Z,94581.50
2023-09-30T05:29:21.551Z,94584.95
2023-09-30T05:29:55.336Z,94584.52
2023-09-30T05:30:28.750Z,94581.61
2023-09-30T05:31:03.050Z,94584.64
2023-09-30T05:31:36.550Z,94582.36
2023-09-30T05:32:10.182Z,94584.21
2023-09-30T05:32:43.501Z,94584.64
2023-09-30T05:33:17.961Z,94588.45
2023-09-30T05:33:51.704Z,94585.98
2023-09-30T05:34:25.640Z,94586.64
2023-09-30T05:34:59.265Z,94584.52
2023-09-30T05:35:33.573Z,94581.19
2023-09-30T05:36:06.918Z,94581.92
2023-09-30T05:36:40.815Z,94584.41
2023-09-30T05:37:14.331Z,94579.59
2023-09-30T05:37:47.770Z,94578.70
2023-09-30T05:38:21.759Z,94583.36
2023-09-30T05:38:56.709Z,94590.61
2023-09-30T05:39:30.298Z,94587.02
2023-09-30T05:40:06.556Z,94592.05
2023-09-30T05:40:40.333Z,94588.50
2023-09-30T05:41:15.233Z,94593.95
2023-09-30T05:41:48.556Z,94595.23
2023-09-30T05:42:23.527Z,94595.11
2023-09-30T05:42:59.655Z,94600.08
2023-09-30T05:43:33.772Z,94600.55
2023-09-30T05:44:08.837Z,94601.20
2023-09-30T05:44:43.361Z,94600.14
2023-09-30T05:45:17.170Z,94600.27
2023-09-30T05:45:50.900Z,94602.49
2023-09-30T05:46:24.494Z,94599.44
2023-09-30T05:46:57.987Z,94602.39
2023-09-30T05:47:31.308Z,94602.70
2023-09-30T05:48:07.229Z,94599.34
2023-09-30T05:48:41.185Z,94601.98
2023-09-30T05:49:15.325Z,94605.84
2023-09-30T05:49:48.669Z,94605.78
2023-09-30T05:50:26.498Z,94607.39
2023-09-30T05:50:59.943Z,94609.96
2023-09-30T05:51:34.460Z,94610.80
2023-09-30T05:52:07.797Z,94608.42
2023-09-30T05:52:41.183Z,94611.91
2023-09-30T05:53:15.435Z,94606.25
2023-09-30T05:53:49.564Z,94608.35
2023-09-30T05:54:23.784Z,94609.65
2023-09-30T05:54:57.062Z,94613.64
2023-09-30T05:55:30.630Z,94614.86
2023-09-30T05:56:04.769Z,94616.29
2023-09-30T05:56:44.464Z,94614.48
2023-09-30T05:57:17.800Z,94597.43
2023-09-30T05:57:51.428Z,94613.36
2023-09-30T05:58:25.160Z,94610.51
2023-09-30T05:58:58.935Z,94614.23
2023-09-30T05:59:32.349Z,94611.20
2023-09-30T06:00:12.985Z,94616.81
2023-09-30T06:00:46.417Z,94613.81
2023-09-30T06:01:20.409Z,94612.92
2023-09-30T06:01:53.698Z,94610.54
2023-09-30T06:02:26.939Z,94614.50
2023-09-30T06:03:00.784Z,94613.29
2023-09-30T06:03:35.513Z,94603.25
2023-09-30T06:04:08.809Z,94612.65
2023-09-30T06:04:42.206Z,94613.23
2023-09-30T06:05:17.576Z,94612.00
2023-09-30T06:05:50.826Z,94616.83
2023-09-30T06:06:25.444Z,94612.32
2023-09-30T06:06:59.434Z,94612.84
2023-09-30T06:07:32.592Z,94612.12
2023-09-30T06:08:06.118Z,94612.64
2023-09-30T06:08:39.794Z,94615.09
2023-09-30T06:09:13.195Z,94617.27
2023-09-30T06:09:46.638Z,94613.54
2023-09-30T06:10:20.179Z,94620.42
2023-09-30T06:10:54.245Z,94622.72
2023-09-30T06:11:29.809Z,94621.23
2023-09-30T06:12:05.002Z,94625.13
2023-09-30T06:12:38.289Z,94625.77
2023-09-30T06:13:12.363Z,94630.06
2023-09-30T06:13:45.596Z,94633.56
2023-09-30T06:14:18.907Z,94631.81
2023-09-30T06:14:54.461Z,94639.14
2023-09-30T06:15:28.123Z,94636.66
2023-09-30T06:16:03.849Z,94638.39
2023-09-30T06:16:37.427Z,94637.23
2023-09-30T06:17:10.614Z,94636.52
2023-09-30T06:17:44.261Z,94632.83
2023-09-30T06:18:17.658Z,94638.16
2023-09-30T06:18:50.880Z,94640.71
2023-09-30T06:19:24.833Z,94639.59
2023-09-30T06:20:01.574Z,94643.48
2023-09-30T06:20:34.842Z,94645.45
2023-09-30T06:21:08.073Z,94639.09
2023-09-30T06:21:41.308Z,94643.17
2023-09-30T06:22:14.481Z,94645.20
2023-09-30T06:22:48.711Z,94647.06
2023-09-30T06:23:22.000Z,94646.39
2023-09-30T06:23:55.375Z,94646.35
2023-09-30T06:24:28.768Z,94646.39
2023-09-30T06:25:02.202Z,94642.48
2023-09-30T06:25:36.922Z,94642.38
2023-09-30T06:26:10.966Z,94647.33
2023-09-30T06:26:44.238Z,94643.53
2023-09-30T06:27:17.490Z,94645.34
2023-09-30T06:27:51.419Z,94643.67
2023-09-30T06:28:27.413Z,94638.95
2023-09-30T06:29:01.470Z,94647.04
2023-09-30T06:29:35.230Z,94645.44
2023-09-30T06:30:10.421Z,94644.92
2023-09-30T06:30:46.905Z,94644.79
2023-09-30T06:31:20.466Z,94647.14
2023-09-30T06:31:53.897Z,94648.65
2023-09-30T06:32:27.446Z,94648.44
2023-09-30T06:33:02.107Z,94644.96
2023-09-30T06:33:43.288Z,94643.55
2023-09-30T06:34:16.556Z,94641.11
2023-09-30T06:34:49.906Z,94643.17
2023-09-30T06:35:23.876Z,94638.24
2023-09-30T06:35:58.061Z,94642.60
2023-09-30T06:36:31.273Z,94641.11
2023-09-30T06:37:06.459Z,94642.55
2023-09-30T06:37:40.521Z,94640.77
2023-09-30T06:38:13.761Z,94636.89
2023-09-30T06:38:49.591Z,94637.91
2023-09-30T06:39:22.793Z,94640.63
2023-09-30T06:39:57.025Z,94634.38
2023-09-30T06:40:30.193Z,94634.42
2023-09-30T06:41:03.505Z,94634.15
2023-09-30T06:41:36.897Z,94637.11
2023-09-30T06:42:10.502Z,94637.21
2023-09-30T06:42:44.125Z,94637.16
2023-09-30T06:43:17.912Z,94636.58
2023-09-30T06:43:53.101Z,94637.78
2023-09-30T06:44:26.471Z,94635.00
2023-09-30T06:45:00.366Z,94640.84
2023-09-30T06:45:34.528Z,94640.27